createdAt,value
2023-05-22T00:02:18.296Z,20.05
2023-05-22T00:04:48.563Z,19.25
2023-05-22T00:07:18.676Z,19.35
2023-05-22T00:09:48.528Z,21.05
2023-05-22T00:12:18.265Z,18.95
2023-05-22T00:14:47.834Z,20.08
2023-05-22T00:17:18.353Z,19.77
2023-05-22T00:19:48.216Z,19.98
2023-05-22T00:22:17.978Z,21.90
2023-05-22T00:24:47.887Z,19.73
2023-05-22T00:27:17.601Z,18.65
2023-05-22T00:29:47.286Z,18.95
2023-05-22T00:32:17.002Z,20.30
2023-05-22T00:34:46.803Z,18.63
2023-05-22T00:37:16.601Z,19.00
2023-05-22T00:39:46.346Z,18.83
2023-05-22T00:42:16.340Z,19.05
2023-05-22T00:44:46.201Z,19.30
2023-05-22T00:47:15.870Z,19.40
2023-05-22T00:49:46.189Z,19.25
2023-05-22T00:52:16.894Z,19.45
2023-05-22T00:54:46.833Z,19.08
2023-05-22T00:57:16.469Z,17.42
2023-05-22T00:59:46.880Z,18.30
2023-05-22T01:02:18.243Z,18.35
2023-05-22T01:04:52.463Z,17.50
2023-05-22T01:07:23.282Z,19.10
2023-05-22T01:09:54.463Z,17.73
2023-05-22T01:13:03.733Z,19.23
2023-05-22T01:16:12.987Z,19.48
2023-05-22T01:19:06.303Z,20.23
2023-05-22T01:22:00.546Z,17.75
2023-05-22T01:24:55.493Z,17.60
2023-05-22T01:28:04.445Z,18.95
2023-05-22T01:31:13.393Z,18.45
2023-05-22T01:33:53.262Z,17.45
2023-05-22T01:36:26.356Z,17.38
2023-05-22T01:38:56.533Z,16.42
2023-05-22T01:41:26.622Z,16.90
2023-05-22T01:43:56.612Z,16.98
2023-05-22T01:46:31.057Z,17.27
2023-05-22T01:49:01.132Z,16.95
2023-05-22T01:52:01.107Z,16.98
2023-05-22T01:54:44.079Z,17.05
2023-05-22T01:57:44.887Z,16.42
2023-05-22T02:00:20.203Z,17.73
2023-05-22T02:03:00.038Z,16.92
2023-05-22T02:05:37.434Z,16.65
2023-05-22T02:08:07.912Z,15.52
2023-05-22T02:10:39.669Z,15.60
2023-05-22T02:13:10.231Z,15.25
2023-05-22T02:15:40.500Z,16.75
2023-05-22T02:18:14.945Z,16.02
2023-05-22T02:20:44.793Z,15.48
2023-05-22T02:23:14.607Z,16.63
2023-05-22T02:25:44.513Z,17.05
2023-05-22T02:28:14.433Z,16.08
2023-05-22T02:30:44.069Z,16.13
2023-05-22T02:33:14.068Z,16.52
2023-05-22T02:35:43.708Z,15.88
2023-05-22T02:38:13.992Z,16.15
2023-05-22T02:40:43.660Z,16.00
2023-05-22T02:43:13.473Z,15.23
2023-05-22T02:45:43.229Z,15.98
2023-05-22T02:48:13.140Z,15.52
2023-05-22T02:50:43.089Z,16.27
2023-05-22T02:53:12.965Z,15.57
2023-05-22T02:55:43.476Z,14.77
2023-05-22T02:58:14.468Z,15.05
2023-05-22T03:00:45.052Z,15.52
2023-05-22T03:03:14.872Z,14.68
2023-05-22T03:05:45.054Z,16.25
2023-05-22T03:08:17.046Z,14.40
2023-05-22T03:10:47.005Z,15.00
2023-05-22T03:13:16.731Z,14.25
2023-05-22T03:15:46.677Z,14.50
2023-05-22T03:18:16.421Z,14.50
2023-05-22T03:20:46.048Z,15.10
2023-05-22T03:23:15.992Z,14.68
2023-05-22T03:25:45.930Z,14.75
2023-05-22T03:28:16.580Z,13.75
2023-05-22T03:30:46.349Z,15.80
2023-05-22T03:33:16.200Z,14.10
2023-05-22T03:35:46.351Z,14.98
2023-05-22T03:38:16.069Z,14.60
2023-05-22T03:40:45.703Z,16.25
2023-05-22T03:43:15.761Z,15.30
2023-05-22T03:45:45.625Z,15.50
2023-05-22T03:48:17.923Z,16.33
2023-05-22T03:50:47.763Z,14.23
2023-05-22T03:53:17.525Z,14.52
2023-05-22T03:55:47.105Z,13.45
2023-05-22T03:58:17.050Z,14.63
2023-05-22T04:00:48.099Z,14.05
2023-05-22T04:03:21.297Z,14.25
2023-05-22T04:05:51.143Z,13.95
2023-05-22T04:08:21.298Z,14.23
2023-05-22T04:10:51.374Z,14.98
2023-05-22T04:13:21.487Z,13.32
2023-05-22T04:15:51.950Z,12.70
2023-05-22T04:18:21.880Z,13.75
2023-05-22T04:20:53.555Z,13.88
2023-05-22T04:23:23.615Z,14.48
2023-05-22T04:25:53.845Z,13.93
2023-05-22T04:28:28.419Z,13.57
2023-05-22T04:30:59.291Z,13.25
2023-05-22T04:33:30.722Z,14.18
2023-05-22T04:36:00.491Z,14.23
2023-05-22T04:38:30.551Z,14.25
2023-05-22T04:41:00.277Z,13.63
2023-05-22T04:43:31.678Z,14.55
2023-05-22T04:46:01.526Z,14.32
2023-05-22T04:48:32.197Z,13.35
2023-05-22T04:51:04.227Z,13.07
2023-05-22T04:53:35.148Z,12.90
2023-05-22T04:56:05.047Z,13.43
2023-05-22T04:58:35.154Z,12.43
2023-05-22T05:01:05.252Z,12.07
2023-05-22T05:03:35.630Z,13.50
2023-05-22T05:06:05.553Z,13.95
2023-05-22T05:08:35.278Z,14.05
2023-05-22T05:11:05.242Z,13.43
2023-05-22T05:13:35.068Z,13.80
2023-05-22T05:16:05.635Z,14.15
2023-05-22T05:18:35.202Z,14.18
2023-05-22T05:21:04.997Z,13.63
2023-05-22T05:23:34.882Z,14.10
2023-05-22T05:26:04.760Z,14.23
2023-05-22T05:28:37.692Z,14.05
2023-05-22T05:31:07.468Z,14.13
2023-05-22T05:33:37.398Z,14.60
2023-05-22T05:36:07.590Z,15.82
2023-05-22T05:38:37.431Z,15.23
2023-05-22T05:41:07.745Z,13.00
2023-05-22T05:43:37.592Z,13.00
2023-05-22T05:46:07.962Z,13.00
2023-05-22T05:48:37.682Z,13.05
2023-05-22T05:51:07.674Z,14.10
2023-05-22T05:53:38.828Z,12.32
2023-05-22T05:56:09.763Z,11.93
2023-05-22T05:58:40.027Z,13.90
2023-05-22T06:01:10.108Z,12.45
2023-05-22T06:03:40.229Z,12.57
2023-05-22T06:06:10.285Z,14.52
2023-05-22T06:08:40.334Z,12.70
2023-05-22T06:11:11.125Z,12.68
2023-05-22T06:13:40.920Z,14.10
2023-05-22T06:16:10.958Z,12.88
2023-05-22T06:18:40.941Z,14.15
2023-05-22T06:21:10.725Z,13.05
2023-05-22T06:23:40.770Z,13.70
2023-05-22T06:26:10.906Z,14.18
2023-05-22T06:28:40.771Z,12.48
2023-05-22T06:31:13.783Z,12.50
2023-05-22T06:33:44.899Z,12.32
2023-05-22T06:36:14.825Z,11.95
2023-05-22T06:38:45.296Z,12.07
2023-05-22T06:41:15.070Z,11.90
2023-05-22T06:43:44.808Z,12.95
2023-05-22T06:46:14.783Z,12.93
2023-05-22T06:48:44.588Z,12.38
2023-05-22T06:51:16.784Z,12.20
2023-05-22T06:53:47.923Z,12.43
2023-05-22T06:56:18.150Z,12.57
2023-05-22T06:58:48.133Z,13.23
2023-05-22T07:01:18.294Z,13.77
2023-05-22T07:03:48.109Z,13.00
2023-05-22T07:06:17.872Z,11.75
2023-05-22T07:08:48.206Z,13.60
2023-05-22T07:11:18.874Z,12.10
2023-05-22T07:13:48.835Z,13.15
2023-05-22T07:16:18.545Z,12.68
2023-05-22T07:18:48.481Z,11.93
2023-05-22T07:21:18.354Z,10.75
2023-05-22T07:23:48.152Z,10.57
2023-05-22T07:26:18.175Z,9.35
2023-05-22T07:28:47.958Z,7.05
2023-05-22T07:31:18.243Z,5.20
2023-05-22T07:33:48.145Z,5.90
2023-05-22T07:36:19.302Z,5.38
2023-05-22T07:38:48.975Z,5.75
2023-05-22T07:41:18.708Z,5.30
2023-05-22T07:43:48.500Z,6.28
2023-05-22T07:46:18.488Z,6.78
2023-05-22T07:48:48.584Z,7.70
2023-05-22T07:51:18.514Z,8.10
2023-05-22T07:53:48.272Z,8.30
2023-05-22T07:56:19.409Z,8.32
2023-05-22T07:58:50.240Z,9.27
2023-05-22T08:01:20.087Z,8.38
2023-05-22T08:03:50.212Z,9.15
2023-05-22T08:06:20.121Z,7.15
2023-05-22T08:08:50.022Z,7.82
2023-05-22T08:11:19.865Z,8.32
2023-05-22T08:13:50.314Z,8.05
2023-05-22T08:16:20.252Z,9.52
2023-05-22T08:18:50.074Z,7.78
2023-05-22T08:21:20.443Z,7.50
2023-05-22T08:23:50.201Z,8.82
2023-05-22T08:26:19.956Z,7.68
2023-05-22T08:28:50.007Z,8.00
2023-05-22T08:31:20.615Z,7.57
2023-05-22T08:33:51.216Z,8.00
2023-05-22T08:36:22.322Z,7.60
2023-05-22T08:38:52.784Z,8.25
2023-05-22T08:41:23.765Z,8.20
2023-05-22T08:43:54.291Z,8.10
2023-05-22T08:46:30.972Z,8.52
2023-05-22T08:49:04.921Z,9.10
2023-05-22T08:51:40.112Z,9.50
2023-05-22T08:54:11.792Z,9.13
2023-05-22T08:56:52.853Z,9.75
2023-05-22T08:59:30.147Z,8.65
2023-05-22T09:02:03.798Z,10.52
2023-05-22T09:04:42.694Z,9.82
2023-05-22T09:07:13.588Z,10.27
2023-05-22T09:09:44.583Z,10.15
2023-05-22T09:12:15.974Z,10.88
2023-05-22T09:14:47.613Z,10.65
2023-05-22T09:17:22.920Z,10.93
2023-05-22T09:19:56.477Z,10.43
2023-05-22T09:22:37.066Z,11.13
2023-05-22T09:25:08.843Z,11.10
2023-05-22T09:27:39.086Z,11.13
2023-05-22T09:30:13.045Z,11.68
2023-05-22T09:32:43.458Z,10.77
2023-05-22T09:35:13.703Z,10.73
2023-05-22T09:37:44.088Z,10.70
2023-05-22T09:40:18.540Z,10.35
2023-05-22T09:42:48.701Z,10.70
2023-05-22T09:45:26.108Z,10.80
2023-05-22T09:47:56.529Z,9.38
2023-05-22T09:50:26.931Z,8.00
2023-05-22T09:52:57.882Z,8.45
2023-05-22T09:55:29.855Z,9.98
2023-05-22T09:58:01.574Z,9.93
2023-05-22T10:00:32.381Z,9.88
2023-05-22T10:03:14.458Z,11.05
2023-05-22T10:05:49.526Z,11.43
2023-05-22T10:08:31.008Z,14.50
2023-05-22T10:11:01.208Z,8.93
2023-05-22T10:13:32.242Z,12.57
2023-05-22T10:16:05.947Z,10.18
2023-05-22T10:18:36.206Z,8.82
2023-05-22T10:21:06.365Z,10.73
2023-05-22T10:23:37.004Z,13.35
2023-05-22T10:26:08.224Z,13.07
2023-05-22T10:28:44.921Z,11.73
2023-05-22T10:31:44.100Z,12.38
2023-05-22T10:34:20.080Z,11.35
2023-05-22T10:37:29.038Z,11.65
2023-05-22T10:40:11.113Z,10.85
2023-05-22T10:42:41.669Z,10.10
2023-05-22T10:45:12.956Z,11.90
2023-05-22T10:47:43.097Z,13.45
2023-05-22T10:50:14.238Z,13.90
2023-05-22T10:52:44.012Z,15.02
2023-05-22T10:55:14.235Z,15.27
2023-05-22T10:57:44.776Z,15.15
2023-05-22T11:00:18.124Z,13.43
2023-05-22T11:02:48.617Z,13.73
2023-05-22T11:05:36.855Z,14.18
2023-05-22T11:08:44.296Z,13.18
2023-05-22T11:11:15.972Z,14.50
2023-05-22T11:13:46.471Z,14.30
2023-05-22T11:16:19.153Z,15.48
2023-05-22T11:18:49.230Z,15.93
2023-05-22T11:21:19.157Z,16.65
2023-05-22T11:23:49.611Z,16.90
2023-05-22T11:26:27.982Z,17.85
2023-05-22T11:28:58.648Z,17.20
2023-05-22T11:31:29.328Z,17.85
2023-05-22T11:33:59.156Z,17.88
2023-05-22T11:36:31.976Z,17.45
2023-05-22T11:39:02.313Z,17.70
2023-05-22T11:41:38.217Z,16.92
2023-05-22T11:44:11.106Z,18.90
2023-05-22T11:46:42.167Z,17.15
2023-05-22T11:49:14.993Z,18.85
2023-05-22T11:51:45.119Z,17.67
2023-05-22T11:54:15.088Z,17.58
2023-05-22T11:56:45.433Z,17.08
2023-05-22T11:59:15.653Z,18.45
2023-05-22T12:01:45.532Z,17.75
2023-05-22T12:04:15.639Z,16.70
2023-05-22T12:06:46.442Z,16.42
2023-05-22T12:09:16.549Z,17.13
2023-05-22T12:11:52.886Z,17.20
2023-05-22T12:14:31.710Z,16.20
2023-05-22T12:17:02.305Z,14.45
2023-05-22T12:19:32.395Z,14.00
2023-05-22T12:22:02.826Z,15.45
2023-05-22T12:24:47.807Z,13.75
2023-05-22T12:27:18.838Z,13.52
2023-05-22T12:29:48.605Z,13.88
2023-05-22T12:32:20.073Z,13.60
2023-05-22T12:34:52.128Z,14.10
2023-05-22T12:37:30.126Z,13.00
2023-05-22T12:42:31.333Z,12.70
2023-05-22T12:45:02.421Z,13.20
2023-05-22T12:47:32.483Z,13.20
2023-05-22T12:50:02.452Z,13.70
2023-05-22T12:52:32.209Z,13.10
2023-05-22T12:55:02.210Z,12.30
2023-05-22T12:57:32.205Z,13.88
2023-05-22T13:00:02.517Z,13.63
2023-05-22T13:02:32.486Z,13.20
2023-05-22T13:05:02.302Z,12.90
2023-05-22T13:07:33.052Z,13.25
2023-05-22T13:10:02.800Z,13.95
2023-05-22T13:12:36.789Z,14.25
2023-05-22T13:15:07.316Z,14.60
2023-05-22T13:17:37.269Z,14.90
2023-05-22T13:20:07.711Z,14.95
2023-05-22T13:22:37.706Z,15.10
2023-05-22T13:25:08.412Z,15.75
2023-05-22T13:27:38.418Z,15.52
2023-05-22T13:30:09.063Z,14.05
2023-05-22T13:32:38.920Z,14.52
2023-05-22T13:35:09.335Z,15.02
2023-05-22T13:37:39.432Z,13.85
2023-05-22T13:40:10.149Z,13.50
2023-05-22T13:42:40.895Z,13.73
2023-05-22T13:45:11.771Z,14.00
2023-05-22T13:47:42.210Z,13.00
2023-05-22T13:50:12.692Z,14.27
2023-05-22T13:52:42.912Z,14.95
2023-05-22T13:55:12.804Z,14.10
2023-05-22T13:57:42.817Z,16.25
2023-05-22T14:00:13.163Z,15.05
2023-05-22T14:02:43.398Z,15.48
2023-05-22T14:05:13.344Z,14.80
2023-05-22T14:07:43.195Z,14.27
2023-05-22T14:10:13.461Z,14.80
2023-05-22T14:12:43.476Z,15.00
2023-05-22T14:15:15.726Z,15.60
2023-05-22T14:17:45.703Z,15.75
2023-05-22T14:20:15.705Z,15.20
2023-05-22T14:22:56.494Z,14.98
2023-05-22T14:25:28.061Z,15.02
2023-05-22T14:27:58.147Z,14.93
2023-05-22T14:30:28.202Z,13.88
2023-05-22T14:32:58.434Z,15.20
2023-05-22T14:35:28.309Z,16.10
2023-05-22T14:37:58.031Z,15.55
2023-05-22T14:40:27.965Z,14.75
2023-05-22T14:42:57.987Z,14.77
2023-05-22T14:45:27.838Z,15.30
2023-05-22T14:47:57.674Z,15.65
2023-05-22T14:50:29.247Z,15.18
2023-05-22T14:52:59.002Z,16.67
2023-05-22T14:55:29.862Z,16.23
2023-05-22T14:57:59.883Z,16.00
2023-05-22T15:00:30.408Z,15.55
2023-05-22T15:03:00.854Z,15.57
2023-05-22T15:05:31.113Z,14.80
2023-05-22T15:08:00.992Z,15.40
2023-05-22T15:10:30.825Z,14.80
2023-05-22T15:13:00.721Z,14.85
2023-05-22T15:15:30.485Z,15.38
2023-05-22T15:18:04.217Z,16.05
2023-05-22T15:20:34.249Z,15.13
2023-05-22T15:23:05.209Z,15.35
2023-05-22T15:25:38.378Z,15.35
2023-05-22T15:28:09.043Z,15.70
2023-05-22T15:30:40.592Z,15.27
2023-05-22T15:33:10.550Z,14.95
2023-05-22T15:35:40.599Z,15.02
2023-05-22T15:38:14.196Z,15.02
2023-05-22T15:40:44.373Z,14.85
2023-05-22T15:43:14.239Z,14.32
2023-05-22T15:45:45.048Z,15.02
2023-05-22T15:48:14.982Z,14.15
2023-05-22T15:50:45.237Z,13.95
2023-05-22T15:53:15.125Z,13.38
2023-05-22T15:55:44.940Z,14.68
2023-05-22T15:58:14.806Z,14.00
2023-05-22T16:00:44.821Z,14.48
2023-05-22T16:03:15.087Z,13.10
2023-05-22T16:05:47.320Z,14.73
2023-05-22T16:08:18.583Z,15.65
2023-05-22T16:10:48.974Z,14.77
2023-05-22T16:13:20.347Z,14.35
2023-05-22T16:15:50.266Z,14.07
2023-05-22T16:18:22.377Z,14.27
2023-05-22T16:20:53.105Z,13.07
2023-05-22T16:23:22.932Z,14.30
2023-05-22T16:25:52.904Z,13.98
2023-05-22T16:28:22.655Z,14.02
2023-05-22T16:30:52.897Z,13.70
2023-05-22T16:33:22.625Z,14.52
2023-05-22T16:35:52.537Z,13.45
2023-05-22T16:38:22.515Z,14.27
2023-05-22T16:40:52.453Z,13.90
2023-05-22T16:43:22.480Z,13.73
2023-05-22T16:45:53.040Z,13.88
2023-05-22T16:48:23.150Z,13.60
2023-05-22T16:50:53.451Z,13.20
2023-05-22T16:53:23.642Z,12.43
2023-05-22T16:55:53.738Z,12.65
2023-05-22T16:58:23.657Z,12.30
2023-05-22T17:00:53.655Z,13.23
2023-05-22T17:03:23.599Z,12.75
2023-05-22T17:05:53.587Z,12.80
2023-05-22T17:08:23.444Z,13.13
2023-05-22T17:10:53.221Z,13.07
2023-05-22T17:13:23.134Z,12.20
2023-05-22T17:15:56.123Z,12.52
2023-05-22T17:18:25.869Z,12.02
2023-05-22T17:20:57.481Z,11.57
2023-05-22T17:23:27.556Z,12.63
2023-05-22T17:25:57.392Z,12.75
2023-05-22T17:28:27.415Z,12.07
2023-05-22T17:30:58.140Z,11.90
2023-05-22T17:33:28.118Z,11.57
2023-05-22T17:35:58.059Z,12.65
2023-05-22T17:38:28.397Z,12.65
2023-05-22T17:40:58.338Z,12.27
2023-05-22T17:43:28.092Z,12.50
2023-05-22T17:45:57.945Z,12.20
2023-05-22T17:48:28.938Z,12.80
2023-05-22T17:50:58.942Z,13.23
2023-05-22T17:53:28.886Z,12.75
2023-05-22T17:55:58.596Z,12.55
2023-05-22T17:58:28.784Z,13.50
2023-05-22T18:00:58.906Z,13.23
2023-05-22T18:03:32.114Z,14.85
2023-05-22T18:06:01.910Z,13.45
2023-05-22T18:08:31.781Z,13.55
2023-05-22T18:11:01.480Z,14.00
2023-05-22T18:13:31.308Z,14.68
2023-05-22T18:16:03.250Z,14.88
2023-05-22T18:18:33.138Z,14.55
2023-05-22T18:21:03.819Z,14.20
2023-05-22T18:23:33.732Z,15.25
2023-05-22T18:26:03.472Z,15.63
2023-05-22T18:28:33.304Z,15.95
2023-05-22T18:31:03.861Z,15.60
2023-05-22T18:33:35.086Z,15.05
2023-05-22T18:36:06.190Z,15.68
2023-05-22T18:38:36.026Z,16.20
2023-05-22T18:41:05.805Z,15.43
2023-05-22T18:43:35.873Z,15.48
2023-05-22T18:46:05.655Z,15.18
2023-05-22T18:48:35.438Z,15.98
2023-05-22T18:51:05.205Z,16.13
2023-05-22T18:53:35.093Z,14.82
2023-05-22T18:56:04.890Z,14.50
2023-05-22T18:58:34.858Z,15.88
2023-05-22T19:01:04.713Z,15.93
2023-05-22T19:03:34.518Z,15.55
2023-05-22T19:06:04.503Z,15.00
2023-05-22T19:08:36.439Z,14.55
2023-05-22T19:11:06.136Z,14.60
2023-05-22T19:13:35.961Z,15.68
2023-05-22T19:16:06.621Z,14.50
2023-05-22T19:18:36.431Z,14.00
2023-05-22T19:21:06.502Z,14.13
2023-05-22T19:23:36.235Z,14.55
2023-05-22T19:26:06.315Z,14.23
2023-05-22T19:28:36.159Z,13.30
2023-05-22T19:31:06.127Z,13.35
2023-05-22T19:33:35.870Z,13.27
2023-05-22T19:36:08.216Z,14.60
2023-05-22T19:38:37.974Z,13.63
2023-05-22T19:41:07.819Z,13.88
2023-05-22T19:43:37.629Z,13.43
2023-05-22T19:46:09.015Z,14.68
2023-05-22T19:48:39.142Z,14.38
2023-05-22T19:51:10.426Z,14.02
2023-05-22T19:53:40.317Z,14.07
2023-05-22T19:56:10.100Z,13.23
2023-05-22T19:58:39.743Z,14.35
2023-05-22T20:01:09.528Z,18.58
2023-05-22T20:03:39.490Z,18.13
2023-05-22T20:06:09.517Z,18.77
2023-05-22T20:08:39.448Z,20.52
2023-05-22T20:11:09.765Z,18.15
2023-05-22T20:13:39.701Z,20.00
2023-05-22T20:16:13.495Z,18.80
2023-05-22T20:18:43.668Z,17.55
2023-05-22T20:21:13.469Z,17.90
2023-05-22T20:23:43.366Z,17.30
2023-05-22T20:26:13.023Z,16.30
2023-05-22T20:28:42.872Z,17.73
2023-05-22T20:31:12.659Z,17.25
2023-05-22T20:33:42.631Z,17.02
2023-05-22T20:36:12.511Z,16.38
2023-05-22T20:38:44.234Z,15.00
2023-05-22T20:41:14.656Z,14.02
2023-05-22T20:43:44.984Z,13.77
2023-05-22T20:46:14.845Z,14.75
2023-05-22T20:48:49.981Z,13.90
2023-05-22T20:51:22.854Z,14.20
2023-05-22T20:53:55.824Z,13.10
2023-05-22T20:56:26.540Z,13.15
2023-05-22T20:58:57.989Z,13.57
2023-05-22T21:01:27.810Z,13.57
2023-05-22T21:04:00.641Z,13.40
2023-05-22T21:06:30.456Z,12.98
2023-05-22T21:09:03.332Z,12.82
2023-05-22T21:11:33.200Z,13.15
2023-05-22T21:14:03.223Z,13.43
2023-05-22T21:16:33.430Z,13.77
2023-05-22T21:19:03.270Z,13.77
2023-05-22T21:21:33.176Z,13.80
2023-05-22T21:24:02.831Z,13.93
2023-05-22T21:26:32.712Z,13.82
2023-05-22T21:29:05.088Z,13.85
2023-05-22T21:31:35.822Z,14.05
2023-05-22T21:34:05.841Z,13.00
2023-05-22T21:36:35.529Z,14.85
2023-05-22T21:39:05.547Z,13.70
2023-05-22T21:41:35.458Z,14.98
2023-05-22T21:44:05.150Z,15.50
2023-05-22T21:46:35.021Z,16.77
2023-05-22T21:49:05.487Z,16.15
2023-05-22T21:51:35.336Z,15.23
2023-05-22T21:54:07.844Z,15.73
2023-05-22T21:56:37.783Z,16.30
2023-05-22T21:59:07.815Z,15.68
2023-05-22T22:01:37.666Z,14.48
2023-05-22T22:04:07.907Z,14.52
2023-05-22T22:06:39.618Z,13.63
2023-05-22T22:09:09.549Z,14.48
2023-05-22T22:11:39.262Z,14.57
2023-05-22T22:14:09.270Z,15.30
2023-05-22T22:16:39.635Z,16.17
2023-05-22T22:19:09.451Z,15.93
2023-05-22T22:21:39.551Z,15.25
2023-05-22T22:24:09.361Z,15.65
2023-05-22T22:26:39.227Z,15.75
2023-05-22T22:29:09.024Z,14.82
2023-05-22T22:31:38.963Z,15.90
2023-05-22T22:34:08.768Z,15.20
2023-05-22T22:36:38.492Z,15.65
2023-05-22T22:39:09.001Z,15.38
2023-05-22T22:41:38.766Z,15.77
2023-05-22T22:44:08.608Z,16.13
2023-05-22T22:46:38.534Z,18.08
2023-05-22T22:49:08.880Z,16.65
2023-05-22T22:51:39.508Z,16.38
2023-05-22T22:54:09.288Z,16.02
2023-05-22T22:56:39.106Z,16.92
2023-05-22T22:59:09.102Z,16.60
2023-05-22T23:01:38.891Z,17.98
2023-05-22T23:04:08.775Z,18.35
2023-05-22T23:06:38.656Z,15.88
2023-05-22T23:09:08.399Z,15.68
2023-05-22T23:11:41.330Z,15.80
2023-05-22T23:14:12.127Z,15.68
2023-05-22T23:16:42.703Z,17.38
2023-05-22T23:19:13.717Z,15.40
2023-05-22T23:21:43.601Z,17.20
2023-05-22T23:24:13.385Z,15.23
2023-05-22T23:26:42.943Z,15.90
2023-05-22T23:29:12.626Z,16.42
2023-05-22T23:31:42.431Z,16.92
2023-05-22T23:34:12.275Z,17.63
2023-05-22T23:36:42.977Z,17.00
2023-05-22T23:39:12.856Z,16.42
2023-05-22T23:41:43.959Z,16.08
2023-05-22T23:44:13.988Z,17.27
2023-05-22T23:46:45.160Z,19.20
2023-05-22T23:49:15.468Z,17.38
2023-05-22T23:51:45.291Z,20.20
2023-05-22T23:54:15.589Z,17.88
2023-05-22T23:56:45.835Z,18.38
2023-05-22T23:59:15.552Z,19.65
